Time;durP1;ratioP1;P1;durP2;ratioP2;P2;SDS_P1;SDS_P2;PMS_P1;PMS_P2;Temp;Humidity;BMP_temperature;BMP_pressure;BME280_temperature;BME280_humidity;BME280_pressure;Samples;Min_cycle;Max_cycle;Signal;HPM_P1;HPM_P2
2023/07/02 00:02:18;;;;;;;7.70;5.60;;;;;;;23.73;60.13;99567.93;107898;1257;61764;-79
2023/07/02 00:04:46;;;;;;;6.20;5.60;;;;;;;23.74;60.20;99566.45;108178;1257;60441;-79
2023/07/02 00:07:14;;;;;;;7.10;6.00;;;;;;;23.76;60.20;99566.94;107970;1257;73898;-80
2023/07/02 00:09:41;;;;;;;6.30;5.30;;;;;;;23.77;60.36;99566.10;107871;1257;72703;-79
2023/07/02 00:12:08;;;;;;;6.80;6.10;;;;;;;23.79;60.44;99566.21;108025;1259;72733;-79
2023/07/02 00:14:36;;;;;;;7.50;5.60;;;;;;;23.79;60.40;99564.88;107925;1256;62037;-78
2023/07/02 00:17:03;;;;;;;7.30;5.80;;;;;;;23.79;60.48;99561.94;108006;1257;60441;-78
2023/07/02 00:19:31;;;;;;;6.40;5.80;;;;;;;23.79;60.48;99562.85;107980;1257;73996;-78
2023/07/02 00:21:58;;;;;;;8.00;5.70;;;;;;;23.80;60.62;99560.15;108024;1257;72533;-79
2023/07/02 00:24:25;;;;;;;6.60;5.80;;;;;;;23.81;60.59;99561.08;108023;1256;72495;-78
2023/07/02 00:26:52;;;;;;;7.00;5.40;;;;;;;23.81;60.57;99560.38;107994;1257;61854;-78
2023/07/02 00:29:18;;;;;;;7.50;5.90;;;;;;;23.80;60.57;99557.35;107976;1256;60345;-79
2023/07/02 00:31:48;;;;;;;8.10;6.20;;;;;;;23.79;60.77;99555.54;107969;1257;72350;-81
2023/07/02 00:34:15;;;;;;;6.60;5.80;;;;;;;23.78;60.73;99557.70;108000;1257;71338;-79
2023/07/02 00:36:42;;;;;;;10.80;6.10;;;;;;;23.77;60.77;99557.15;108009;1256;71541;-79
2023/07/02 00:39:11;;;;;;;6.60;6.00;;;;;;;23.76;60.81;99561.34;107978;1257;60527;-78
2023/07/02 00:41:39;;;;;;;8.10;6.30;;;;;;;23.75;60.84;99562.80;107943;1256;61104;-82
2023/07/02 00:44:05;;;;;;;7.90;6.20;;;;;;;23.75;60.87;99568.02;107948;1256;73565;-78
2023/07/02 00:46:33;;;;;;;6.80;6.10;;;;;;;23.71;60.99;99569.30;107849;1257;72718;-79
2023/07/02 00:49:00;;;;;;;7.20;5.70;;;;;;;23.70;60.96;99568.35;107924;1257;73853;-79
2023/07/02 00:51:29;;;;;;;6.70;5.60;;;;;;;23.66;60.99;99571.37;107980;1257;61796;-78
2023/07/02 00:53:57;;;;;;;7.20;5.50;;;;;;;23.63;60.91;99571.41;107989;1256;60452;-79
2023/07/02 00:56:25;;;;;;;8.40;6.50;;;;;;;23.61;60.92;99573.26;108022;1257;73546;-79
2023/07/02 00:58:54;;;;;;;6.60;5.60;;;;;;;23.59;60.89;99573.09;108021;1256;71669;-79
2023/07/02 01:01:22;;;;;;;6.40;5.80;;;;;;;23.57;60.98;99576.02;108013;1257;72562;-79
2023/07/02 01:03:59;;;;;;;7.20;5.50;;;;;;;23.54;61.00;99575.73;107969;1256;60958;-78
2023/07/02 01:06:28;;;;;;;8.00;5.50;;;;;;;23.51;61.15;99575.68;107977;1256;60334;-79
2023/07/02 01:09:02;;;;;;;6.20;5.60;;;;;;;23.47;61.59;99574.23;107931;1257;73678;-79
2023/07/02 01:11:47;;;;;;;6.30;5.40;;;;;;;23.47;61.70;99572.05;107958;1259;72514;-79
2023/07/02 01:14:20;;;;;;;7.20;6.20;;;;;;;23.45;61.89;99566.88;107915;1257;72146;-79
2023/07/02 01:16:49;;;;;;;7.50;5.10;;;;;;;23.40;61.98;99567.13;107820;1257;61994;-79
2023/07/02 01:19:19;;;;;;;6.50;5.80;;;;;;;23.32;62.13;99565.92;107943;1257;60447;-79
2023/07/02 01:21:47;;;;;;;7.00;6.00;;;;;;;23.27;62.23;99565.67;108222;1256;72472;-78
2023/07/02 01:24:14;;;;;;;6.50;5.80;;;;;;;23.25;62.48;99563.09;107985;1257;71726;-79
2023/07/02 01:26:41;;;;;;;7.10;6.20;;;;;;;23.24;62.40;99563.15;107954;1256;70796;-78
2023/07/02 01:29:20;;;;;;;6.40;5.80;;;;;;;23.21;62.48;99562.63;107907;1257;60450;-78
2023/07/02 01:31:47;;;;;;;6.50;5.80;;;;;;;23.14;62.69;99564.02;107915;1260;60400;-79
2023/07/02 01:34:15;;;;;;;8.30;5.50;;;;;;;23.07;62.62;99565.84;108025;1257;73637;-80
2023/07/02 01:36:42;;;;;;;6.90;5.60;;;;;;;23.02;62.81;99568.73;107972;1260;72595;-79
2023/07/02 01:39:10;;;;;;;6.50;5.80;;;;;;;23.00;62.80;99566.36;107979;1259;72878;-80
2023/07/02 01:41:49;;;;;;;6.80;5.90;;;;;;;22.97;62.90;99562.48;108023;1256;61671;-78
2023/07/02 01:44:16;;;;;;;7.30;5.70;;;;;;;22.96;62.91;99558.58;107913;1257;60162;-79
2023/07/02 01:46:44;;;;;;;7.90;5.70;;;;;;;22.91;62.91;99556.23;107955;1257;73957;-79
2023/07/02 01:49:11;;;;;;;6.60;5.90;;;;;;;22.89;63.12;99556.19;107938;1259;72655;-79
2023/07/02 01:51:38;;;;;;;6.90;6.20;;;;;;;22.93;63.04;99556.67;107982;1257;72771;-79
2023/07/02 01:54:06;;;;;;;7.00;5.50;;;;;;;22.96;63.08;99556.40;107978;1257;62771;-79
2023/07/02 01:56:33;;;;;;;7.60;5.60;;;;;;;22.93;63.04;99558.86;108016;1257;60467;-78
2023/07/02 01:59:02;;;;;;;6.40;5.80;;;;;;;22.91;63.04;99557.61;107935;1257;73758;-80
2023/07/02 02:01:29;;;;;;;6.50;5.80;;;;;;;22.91;62.99;99554.74;107937;1257;72758;-79
2023/07/02 02:03:56;;;;;;;6.10;5.50;;;;;;;22.92;63.10;99556.02;107968;1257;72570;-78
2023/07/02 02:06:23;;;;;;;6.60;5.90;;;;;;;22.90;63.20;99559.79;107889;1261;61935;-79
2023/07/02 02:08:50;;;;;;;6.70;5.40;;;;;;;22.91;62.99;99559.70;107914;1256;59489;-79
2023/07/02 02:11:17;;;;;;;6.40;5.50;;;;;;;22.92;63.15;99558.34;107972;1257;73863;-79
2023/07/02 02:13:43;;;;;;;6.20;5.60;;;;;;;22.90;63.23;99559.94;108016;1257;72464;-79
2023/07/02 02:16:10;;;;;;;6.50;5.60;;;;;;;22.83;63.27;99556.71;108010;1257;72789;-79
2023/07/02 02:18:37;;;;;;;7.30;6.00;;;;;;;22.82;63.54;99558.88;107846;1257;60748;-79
2023/07/02 02:21:04;;;;;;;6.60;5.90;;;;;;;22.84;63.54;99559.77;107953;1259;60426;-79
2023/07/02 02:23:32;;;;;;;6.70;6.00;;;;;;;22.88;63.42;99564.03;107940;1260;73739;-79
2023/07/02 02:25:59;;;;;;;7.00;6.10;;;;;;;22.85;63.46;99560.33;107956;1257;71713;-79
2023/07/02 02:28:26;;;;;;;6.90;6.20;;;;;;;22.89;63.46;99563.73;107938;1260;72724;-77
2023/07/02 02:30:53;;;;;;;6.90;6.20;;;;;;;22.88;63.46;99565.52;107941;1257;61890;-78
2023/07/02 02:33:21;;;;;;;6.50;5.90;;;;;;;22.91;63.69;99568.66;107895;1260;60142;-79
2023/07/02 02:35:48;;;;;;;7.40;5.90;;;;;;;22.94;63.44;99563.93;107775;1258;72532;-78
2023/07/02 02:38:16;;;;;;;6.90;6.10;;;;;;;22.98;63.48;99564.46;108046;1260;72538;-79
2023/07/02 02:40:46;;;;;;;6.20;5.60;;;;;;;23.02;63.54;99564.36;108035;1256;72411;-81
2023/07/02 02:43:18;;;;;;;6.40;5.40;;;;;;;23.04;63.45;99561.98;108027;1257;61926;-79
2023/07/02 02:45:45;;;;;;;7.20;5.80;;;;;;;23.07;63.39;99559.08;108056;1257;60799;-80
2023/07/02 02:48:13;;;;;;;6.40;5.80;;;;;;;23.10;63.32;99560.30;107939;1259;73860;-78
2023/07/02 02:50:43;;;;;;;6.70;6.00;;;;;;;23.13;63.40;99557.30;108083;1256;72252;-79
2023/07/02 02:53:10;;;;;;;7.40;5.90;;;;;;;23.16;63.39;99553.46;107904;1259;72364;-80
2023/07/02 02:55:37;;;;;;;6.40;5.80;;;;;;;23.21;63.37;99552.75;107965;1256;61992;-80
2023/07/02 02:58:04;;;;;;;6.20;5.60;;;;;;;23.24;63.33;99556.62;108021;1256;60340;-80
2023/07/02 03:00:31;;;;;;;6.50;5.80;;;;;;;23.28;63.20;99555.42;108028;1260;73952;-79
2023/07/02 03:02:58;;;;;;;6.30;5.70;;;;;;;23.30;63.33;99557.01;108034;1257;71978;-79
2023/07/02 03:05:26;;;;;;;7.10;6.00;;;;;;;23.28;63.33;99556.98;107988;1257;72523;-77
2023/07/02 03:07:53;;;;;;;7.20;5.80;;;;;;;23.25;63.52;99559.58;107976;1257;60952;-79
2023/07/02 03:10:20;;;;;;;7.90;6.20;;;;;;;23.26;63.62;99558.13;107884;1258;60434;-80
2023/07/02 03:12:48;;;;;;;6.90;6.20;;;;;;;23.34;63.81;99555.05;107941;1255;74171;-80
2023/07/02 03:15:17;;;;;;;7.10;6.40;;;;;;;23.43;63.52;99558.28;107912;1259;73039;-79
2023/07/02 03:17:44;;;;;;;6.80;6.10;;;;;;;23.51;63.59;99555.98;107964;1259;72651;-78
2023/07/02 03:20:11;;;;;;;6.60;6.00;;;;;;;23.58;63.41;99561.13;107925;1256;61916;-78
2023/07/02 03:22:38;;;;;;;6.80;6.10;;;;;;;23.64;63.29;99555.70;107897;1257;59322;-78
2023/07/02 03:25:05;;;;;;;9.50;6.10;;;;;;;23.71;63.12;99557.45;107956;1256;73778;-78
2023/07/02 03:27:32;;;;;;;6.80;6.10;;;;;;;23.78;62.85;99555.67;107965;1257;71554;-78
2023/07/02 03:29:59;;;;;;;7.30;6.00;;;;;;;23.82;62.64;99550.74;107924;1259;72686;-78
2023/07/02 03:32:26;;;;;;;6.90;6.30;;;;;;;23.85;62.50;99544.61;107961;1256;60632;-78
2023/07/02 03:34:53;;;;;;;7.70;6.40;;;;;;;23.85;62.40;99547.34;107915;1260;60494;-78
2023/07/02 03:37:20;;;;;;;7.30;6.20;;;;;;;23.82;62.41;99547.46;107916;1257;73932;-78
2023/07/02 03:39:47;;;;;;;6.90;6.20;;;;;;;23.77;62.54;99546.31;107901;1258;72566;-78
2023/07/02 03:42:14;;;;;;;7.00;6.30;;;;;;;23.74;62.43;99548.21;107979;1256;72457;-78
2023/07/02 03:44:41;;;;;;;7.00;6.30;;;;;;;23.65;62.56;99551.83;107914;1258;61888;-78
2023/07/02 03:47:08;;;;;;;6.80;6.00;;;;;;;23.57;62.74;99548.91;107926;1258;60373;-79
2023/07/02 03:49:35;;;;;;;7.90;6.90;;;;;;;23.48;63.14;99542.86;107937;1259;73751;-79
2023/07/02 03:52:02;;;;;;;8.40;6.50;;;;;;;23.46;63.68;99544.09;107993;1257;72537;-79
2023/07/02 03:54:29;;;;;;;7.80;6.10;;;;;;;23.54;63.78;99549.73;108030;1256;72571;-80
2023/07/02 03:56:56;;;;;;;7.00;6.30;;;;;;;23.62;63.79;99549.59;107923;1258;60551;-79
2023/07/02 03:59:23;;;;;;;8.00;6.70;;;;;;;23.68;63.50;99546.88;107918;1258;60280;-79
2023/07/02 04:01:51;;;;;;;7.50;6.80;;;;;;;23.73;63.34;99544.85;107914;1257;73650;-79
2023/07/02 04:04:18;;;;;;;7.10;6.30;;;;;;;23.81;63.47;99541.52;107933;1257;72631;-79
2023/07/02 04:06:45;;;;;;;7.00;6.30;;;;;;;23.92;63.53;99546.58;107942;1258;71174;-79
2023/07/02 04:09:12;;;;;;;7.40;6.70;;;;;;;24.05;63.07;99551.48;107954;1256;62029;-79
2023/07/02 04:11:41;;;;;;;7.60;6.50;;;;;;;24.22;62.70;99555.11;108007;1260;60392;-79
2023/07/02 04:14:08;;;;;;;7.60;6.80;;;;;;;24.34;62.34;99552.19;107941;1254;73662;-79
2023/07/02 04:16:35;;;;;;;7.50;6.60;;;;;;;24.44;61.78;99546.94;108087;1259;71125;-78
2023/07/02 04:19:02;;;;;;;7.70;6.90;;;;;;;24.51;61.29;99548.80;107870;1257;71083;-78
2023/07/02 04:21:30;;;;;;;7.90;6.90;;;;;;;24.56;60.89;99546.28;107883;1260;60596;-79
2023/07/02 04:23:57;;;;;;;9.40;6.90;;;;;;;24.66;60.67;99544.42;108011;1257;60332;-79
2023/07/02 04:26:26;;;;;;;8.10;6.60;;;;;;;24.79;60.24;99545.71;107986;1258;72881;-79
2023/07/02 04:29:15;;;;;;;8.00;7.00;;;;;;;24.97;59.70;99536.80;108039;1257;72828;-79
2023/07/02 04:31:42;;;;;;;7.10;6.40;;;;;;;25.05;59.44;99534.35;107951;1258;72586;-79
2023/07/02 04:34:09;;;;;;;7.40;6.50;;;;;;;25.14;59.33;99533.42;107921;1256;60941;-79
2023/07/02 04:36:37;;;;;;;7.70;6.90;;;;;;;25.26;59.31;99540.31;107972;1260;60451;-79
2023/07/02 04:39:04;;;;;;;8.80;6.60;;;;;;;25.39;59.33;99540.77;107949;1257;73885;-79
2023/07/02 04:41:32;;;;;;;7.00;6.30;;;;;;;25.51;59.18;99541.70;107949;1257;71519;-79
2023/07/02 04:43:59;;;;;;;7.50;6.30;;;;;;;25.65;58.65;99539.81;107909;1260;71899;-79
2023/07/02 04:46:26;;;;;;;7.00;6.30;;;;;;;25.74;58.30;99536.58;107947;1256;62043;-79
2023/07/02 04:48:53;;;;;;;7.00;6.30;;;;;;;25.86;58.15;99536.34;107917;1260;60335;-79
2023/07/02 04:51:20;;;;;;;8.00;6.70;;;;;;;26.07;57.88;99535.71;107934;1257;72242;-79
2023/07/02 04:53:47;;;;;;;8.90;6.70;;;;;;;26.29;57.27;99537.18;107997;1257;71316;-78
2023/07/02 04:56:13;;;;;;;6.90;6.20;;;;;;;26.46;56.25;99538.47;107983;1258;72707;-79
2023/07/02 04:58:40;;;;;;;7.10;6.10;;;;;;;26.44;55.80;99537.05;107954;1257;62495;-79
2023/07/02 05:01:07;;;;;;;8.50;7.40;;;;;;;26.39;55.82;99537.52;107877;1257;60095;-78
2023/07/02 05:03:34;;;;;;;7.70;6.70;;;;;;;26.35;55.93;99531.24;107917;1260;73827;-78
2023/07/02 05:06:02;;;;;;;8.10;7.30;;;;;;;26.38;55.97;99534.61;107941;1260;73383;-78
2023/07/02 05:08:29;;;;;;;7.60;6.90;;;;;;;26.43;56.03;99536.10;107998;1257;72492;-79
2023/07/02 05:10:55;;;;;;;7.70;7.00;;;;;;;26.48;55.86;99536.44;108005;1257;60391;-79
2023/07/02 05:13:22;;;;;;;8.00;6.80;;;;;;;26.55;55.96;99533.26;107930;1257;60336;-80
2023/07/02 05:15:49;;;;;;;7.70;6.80;;;;;;;26.64;55.81;99532.02;107852;1256;74075;-79
2023/07/02 05:18:17;;;;;;;7.80;7.10;;;;;;;26.77;55.86;99530.70;107848;1257;71965;-77
2023/07/02 05:20:44;;;;;;;8.20;6.80;;;;;;;26.93;55.72;99526.92;107960;1257;71303;-77
2023/07/02 05:23:11;;;;;;;7.40;6.70;;;;;;;27.01;54.94;99527.94;108009;1255;60444;-79
2023/07/02 05:25:38;;;;;;;7.50;6.80;;;;;;;27.10;54.52;99529.74;107955;1257;60820;-79
2023/07/02 05:28:05;;;;;;;7.00;6.30;;;;;;;27.24;54.32;99530.91;107959;1256;73735;-79
2023/07/02 05:30:32;;;;;;;7.00;6.30;;;;;;;27.37;53.81;99526.72;108017;1256;72743;-78
2023/07/02 05:32:59;;;;;;;7.40;6.70;;;;;;;27.40;53.27;99527.73;107966;1257;72570;-78
2023/07/02 05:35:26;;;;;;;7.50;6.80;;;;;;;27.33;53.10;99522.51;107969;1257;60626;-79
2023/07/02 05:37:53;;;;;;;7.80;6.20;;;;;;;27.30;52.98;99526.98;107974;1256;60723;-81
2023/07/02 05:40:20;;;;;;;6.90;6.20;;;;;;;27.39;52.91;99525.78;107978;1257;73681;-82
2023/07/02 05:42:47;;;;;;;6.80;6.20;;;;;;;27.42;52.96;99523.26;107999;1260;72706;-78
2023/07/02 05:45:15;;;;;;;8.50;6.10;;;;;;;27.46;53.17;99524.36;107914;1257;72637;-77
2023/07/02 05:47:42;;;;;;;8.10;6.70;;;;;;;27.48;52.97;99526.38;107847;1261;62214;-79
2023/07/02 05:50:09;;;;;;;7.20;6.40;;;;;;;27.55;53.22;99522.21;107811;1257;60460;-79
2023/07/02 05:52:36;;;;;;;7.50;6.80;;;;;;;27.66;52.29;99529.45;107905;1258;74109;-79
2023/07/02 05:55:03;;;;;;;7.00;6.30;;;;;;;27.78;52.10;99529.98;107951;1257;71225;-79
2023/07/02 05:57:31;;;;;;;7.40;6.70;;;;;;;27.92;51.62;99528.77;107925;1257;71986;-79
2023/07/02 05:59:58;;;;;;;7.70;6.90;;;;;;;27.99;51.40;99529.02;107994;1257;60665;-79
2023/07/02 06:02:26;;;;;;;7.90;7.00;;;;;;;28.02;51.31;99527.91;108127;1257;59813;-79
2023/07/02 06:04:53;;;;;;;8.30;7.20;;;;;;;27.98;51.32;99528.50;108008;1257;73584;-79
2023/07/02 06:07:20;;;;;;;8.50;7.40;;;;;;;28.02;51.41;99525.17;108011;1257;64167;-79
2023/07/02 06:09:47;;;;;;;8.00;7.10;;;;;;;28.07;51.53;99524.37;107916;1258;64091;-80
2023/07/02 06:12:14;;;;;;;8.10;7.40;;;;;;;28.13;51.31;99524.09;107795;1257;60438;-79
2023/07/02 06:14:41;;;;;;;9.40;7.90;;;;;;;28.18;51.23;99521.78;107833;1257;60351;-79
2023/07/02 06:17:09;;;;;;;8.80;7.90;;;;;;;28.18;51.09;99522.41;107967;1257;65206;-78
2023/07/02 06:19:36;;;;;;;8.20;7.30;;;;;;;28.06;51.06;99519.19;107957;1255;72714;-79
2023/07/02 06:22:04;;;;;;;8.80;7.90;;;;;;;28.01;51.49;99521.95;107998;1257;75545;-80
2023/07/02 06:24:32;;;;;;;11.40;8.20;;;;;;;27.96;51.67;99517.20;107958;1255;61811;-79
2023/07/02 06:26:59;;;;;;;8.60;7.10;;;;;;;27.99;51.71;99519.54;107912;1257;60367;-78
2023/07/02 06:29:28;;;;;;;9.00;8.10;;;;;;;28.11;51.91;99517.99;107980;1256;73899;-78
2023/07/02 06:31:55;;;;;;;8.30;7.30;;;;;;;28.28;51.81;99519.92;107898;1257;64117;-79
2023/07/02 06:34:21;;;;;;;7.70;7.00;;;;;;;28.45;51.25;99515.75;107918;1257;63860;-78
2023/07/02 06:36:48;;;;;;;7.50;6.80;;;;;;;28.60;50.56;99518.48;107928;1257;60419;-81
2023/07/02 06:39:15;;;;;;;8.20;7.40;;;;;;;28.67;49.75;99514.73;108010;1259;59187;-79
2023/07/02 06:41:42;;;;;;;9.40;7.40;;;;;;;28.75;49.44;99513.32;108011;1257;65237;-80
2023/07/02 06:44:09;;;;;;;7.30;6.50;;;;;;;28.88;49.32;99514.32;108010;1259;64105;-79
2023/07/02 06:46:36;;;;;;;7.20;6.50;;;;;;;28.97;48.64;99508.98;108000;1257;64095;-79
2023/07/02 06:49:03;;;;;;;7.00;6.30;;;;;;;29.06;48.20;99508.05;107916;1257;60329;-79
2023/07/02 06:51:30;;;;;;;6.80;5.60;;;;;;;29.11;47.55;99507.84;107969;1256;60416;-80
2023/07/02 06:53:57;;;;;;;6.00;5.50;;;;;;;29.18;47.05;99505.96;107937;1257;63836;-79
2023/07/02 06:56:24;;;;;;;5.80;5.20;;;;;;;29.28;46.72;99503.66;107922;1257;62830;-78
2023/07/02 06:58:51;;;;;;;5.70;5.10;;;;;;;29.41;46.06;99506.10;107966;1257;63948;-78
2023/07/02 07:01:18;;;;;;;5.90;5.00;;;;;;;29.54;45.07;99503.05;107990;1257;60348;-79
2023/07/02 07:03:47;;;;;;;5.40;4.80;;;;;;;29.65;45.05;99499.71;107989;1257;60309;-79
2023/07/02 07:06:13;;;;;;;6.40;5.00;;;;;;;29.75;44.97;99500.77;107898;1256;63637;-79
2023/07/02 07:08:40;;;;;;;5.50;4.70;;;;;;;29.83;44.75;99502.41;108018;1257;64782;-79
2023/07/02 07:11:07;;;;;;;6.80;5.20;;;;;;;29.92;44.40;99502.92;108029;1258;63733;-78
2023/07/02 07:13:35;;;;;;;5.80;5.20;;;;;;;30.01;44.36;99502.17;107953;1256;60308;-78
2023/07/02 07:16:02;;;;;;;6.10;5.50;;;;;;;30.09;44.13;99500.08;107932;1257;60526;-78
2023/07/02 07:18:29;;;;;;;7.30;5.00;;;;;;;30.19;43.96;99499.33;107891;1256;65075;-79
2023/07/02 07:21:00;;;;;;;6.20;5.60;;;;;;;30.29;43.81;99497.15;107940;1257;64076;-79
2023/07/02 07:23:26;;;;;;;7.80;6.20;;;;;;;30.37;43.65;99492.77;107956;1255;64236;-80
2023/07/02 07:25:53;;;;;;;6.60;5.70;;;;;;;30.43;43.43;99486.54;107967;1256;60459;-79
2023/07/02 07:28:20;;;;;;;6.00;5.30;;;;;;;30.43;43.46;99485.90;107876;1256;60527;-79
2023/07/02 07:30:48;;;;;;;8.50;5.90;;;;;;;30.38;43.38;99487.00;108033;1257;65273;-79
2023/07/02 07:33:15;;;;;;;6.60;6.00;;;;;;;30.29;43.75;99488.09;108030;1257;65632;-79
2023/07/02 07:35:42;;;;;;;7.10;5.90;;;;;;;30.21;44.03;99491.20;108017;1257;62688;-77
2023/07/02 07:38:14;;;;;;;6.60;5.90;;;;;;;30.23;44.13;99486.22;108019;1257;60345;-80
2023/07/02 07:40:42;;;;;;;6.70;5.80;;;;;;;30.28;44.24;99486.63;108053;1257;60310;-80
2023/07/02 07:43:09;;;;;;;7.40;5.60;;;;;;;30.32;44.03;99487.27;108009;1257;65239;-79
2023/07/02 07:45:37;;;;;;;6.40;5.70;;;;;;;30.36;43.87;99488.69;108024;1257;63169;-79
2023/07/02 07:48:05;;;;;;;7.10;5.40;;;;;;;30.38;43.77;99491.18;107943;1257;63813;-79
2023/07/02 07:50:32;;;;;;;6.30;5.60;;;;;;;30.42;43.46;99486.40;107893;1256;60444;-78
2023/07/02 07:52:59;;;;;;;7.00;5.60;;;;;;;30.40;43.30;99481.88;107827;1256;60371;-80
2023/07/02 07:55:26;;;;;;;5.60;5.00;;;;;;;30.34;43.08;99489.44;107924;1256;63804;-80
2023/07/02 07:57:53;;;;;;;5.60;5.10;;;;;;;30.33;42.90;99486.06;107983;1257;63974;-80
2023/07/02 08:00:20;;;;;;;5.60;4.80;;;;;;;30.38;42.78;99485.51;107920;1257;63851;-79
2023/07/02 08:02:47;;;;;;;5.10;4.50;;;;;;;30.43;42.89;99481.81;108018;1257;60443;-80
2023/07/02 08:05:14;;;;;;;5.40;4.30;;;;;;;30.45;42.16;99478.79;107970;1256;60297;-79
2023/07/02 08:07:42;;;;;;;5.50;4.50;;;;;;;30.47;41.69;99474.59;108020;1256;65067;-82
2023/07/02 08:10:09;;;;;;;5.00;4.30;;;;;;;30.49;41.36;99472.58;107877;1257;64740;-78
2023/07/02 08:12:38;;;;;;;4.90;4.40;;;;;;;30.48;41.01;99468.67;108025;1257;64062;-78
2023/07/02 08:15:06;;;;;;;5.00;4.50;;;;;;;30.49;41.62;99466.52;107971;1257;60318;-80
2023/07/02 08:17:34;;;;;;;4.60;4.00;;;;;;;30.52;41.97;99467.64;108072;1257;59028;-81
2023/07/02 08:20:02;;;;;;;5.50;4.30;;;;;;;30.57;41.72;99464.98;108025;1259;64083;-79
2023/07/02 08:22:29;;;;;;;4.70;4.10;;;;;;;30.63;41.42;99465.50;108006;1257;64091;-79
2023/07/02 08:24:55;;;;;;;5.30;4.60;;;;;;;30.68;41.09;99470.55;107917;1256;62672;-78
2023/07/02 08:27:23;;;;;;;4.90;3.90;;;;;;;30.78;40.32;99469.30;107984;1255;60479;-80
2023/07/02 08:29:50;;;;;;;4.70;3.80;;;;;;;30.92;39.89;99467.63;107923;1256;60338;-80
2023/07/02 08:32:17;;;;;;;4.90;4.40;;;;;;;31.07;40.31;99463.80;107866;1257;65256;-78
2023/07/02 08:34:44;;;;;;;5.50;4.40;;;;;;;31.20;39.63;99462.20;107931;1256;64106;-79
2023/07/02 08:37:11;;;;;;;5.00;4.20;;;;;;;31.40;39.05;99461.11;107970;1257;62777;-79
2023/07/02 08:39:39;;;;;;;5.10;4.20;;;;;;;31.45;39.06;99455.73;107918;1256;60442;-79
2023/07/02 08:42:06;;;;;;;5.20;4.40;;;;;;;31.54;38.82;99454.22;107935;1256;60404;-79
2023/07/02 08:44:34;;;;;;;5.30;4.30;;;;;;;31.69;38.26;99451.20;107949;1257;64076;-79
2023/07/02 08:47:01;;;;;;;6.20;4.30;;;;;;;31.85;38.07;99451.77;108015;1256;64106;-79
2023/07/02 08:49:28;;;;;;;4.30;3.90;;;;;;;32.00;37.92;99449.31;107865;1255;62636;-78
2023/07/02 08:51:55;;;;;;;5.50;4.00;;;;;;;32.11;38.04;99454.96;107799;1256;59979;-78
2023/07/02 08:54:22;;;;;;;6.10;4.40;;;;;;;32.21;38.12;99453.85;108010;1256;60422;-79
2023/07/02 08:56:50;;;;;;;4.80;4.00;;;;;;;32.35;37.54;99452.33;107978;1256;65096;-80
2023/07/02 08:59:16;;;;;;;4.70;4.00;;;;;;;32.46;36.68;99446.89;107933;1256;64210;-78
2023/07/02 09:01:47;;;;;;;5.80;4.20;;;;;;;32.51;36.90;99448.10;108010;1256;63978;-79
2023/07/02 09:04:19;;;;;;;6.10;4.50;;;;;;;32.61;36.84;99447.39;108014;1257;60439;-79
2023/07/02 09:06:47;;;;;;;5.70;4.30;;;;;;;32.71;36.69;99445.69;108095;1257;60444;-79
2023/07/02 09:09:15;;;;;;;4.80;4.20;;;;;;;32.82;36.35;99440.21;108073;1257;65278;-79
2023/07/02 09:11:49;;;;;;;4.30;3.60;;;;;;;32.90;36.45;99443.69;108019;1257;64193;-80
2023/07/02 09:14:30;;;;;;;5.30;4.40;;;;;;;32.97;35.78;99442.02;108067;1257;64663;-78
2023/07/02 09:17:08;;;;;;;4.50;3.90;;;;;;;33.02;35.77;99440.77;108111;1256;59231;-78
2023/07/02 09:19:35;;;;;;;4.30;3.90;;;;;;;33.09;36.01;99441.23;108047;1255;62065;-78
2023/07/02 09:22:03;;;;;;;4.70;4.10;;;;;;;33.17;35.98;99442.58;108035;1256;65215;-80
2023/07/02 09:24:31;;;;;;;4.30;3.70;;;;;;;33.26;35.67;99440.02;108086;1257;64119;-79
2023/07/02 09:26:59;;;;;;;4.40;3.80;;;;;;;33.30;34.58;99439.60;108133;1256;64219;-81
2023/07/02 09:29:31;;;;;;;4.80;4.10;;;;;;;33.30;34.10;99438.27;108130;1257;60296;-80
2023/07/02 09:32:00;;;;;;;4.60;3.70;;;;;;;33.37;34.11;99440.89;108133;1257;59231;-78
2023/07/02 09:34:40;;;;;;;5.00;3.70;;;;;;;33.45;34.40;99445.03;108200;1257;65309;-77
2023/07/02 09:37:09;;;;;;;4.50;4.00;;;;;;;33.54;33.43;99444.46;108254;1256;62556;-78
2023/07/02 09:39:36;;;;;;;4.90;3.80;;;;;;;33.58;33.23;99438.27;108106;1256;64077;-79
2023/07/02 09:42:06;;;;;;;5.40;3.50;;;;;;;33.64;33.50;99438.56;108134;1255;59488;-79
2023/07/02 09:44:34;;;;;;;4.80;3.80;;;;;;;33.65;33.68;99437.67;108104;1256;60322;-79
2023/07/02 09:47:07;;;;;;;4.40;4.00;;;;;;;33.69;33.74;99440.16;108105;1256;63973;-78
2023/07/02 09:49:35;;;;;;;5.00;3.90;;;;;;;33.67;33.64;99440.38;108130;1255;62769;-78
2023/07/02 09:52:06;;;;;;;5.10;4.00;;;;;;;33.51;33.13;99434.98;108054;1257;64114;-78
2023/07/02 09:54:34;;;;;;;4.00;3.60;;;;;;;33.27;33.61;99435.13;108048;1256;60316;-78
2023/07/02 09:57:03;;;;;;;4.50;3.70;;;;;;;33.10;33.99;99429.83;108034;1256;59382;-78
2023/07/02 09:59:29;;;;;;;4.30;3.80;;;;;;;33.11;34.60;99425.67;107980;1257;63984;-80
2023/07/02 10:01:56;;;;;;;4.90;3.80;;;;;;;33.12;34.77;99428.27;107826;1257;63928;-79
2023/07/02 10:04:24;;;;;;;6.00;3.90;;;;;;;33.13;34.79;99425.23;108086;1258;64119;-79
2023/07/02 10:06:56;;;;;;;5.60;3.50;;;;;;;33.15;34.16;99423.96;108055;1257;60434;-80
2023/07/02 10:09:44;;;;;;;4.00;3.50;;;;;;;33.17;34.01;99421.39;108095;1256;60235;-78
2023/07/02 10:12:28;;;;;;;4.00;3.50;;;;;;;33.17;33.67;99414.77;107919;1256;65173;-78
2023/07/02 10:14:57;;;;;;;4.10;3.30;;;;;;;33.17;33.99;99410.95;107923;1256;64014;-78
2023/07/02 10:17:32;;;;;;;5.30;3.70;;;;;;;33.16;33.71;99409.33;107929;1256;62432;-78
2023/07/02 10:20:07;;;;;;;3.60;3.20;;;;;;;33.15;33.53;99405.34;107894;1256;60613;-79
2023/07/02 10:22:45;;;;;;;4.70;3.60;;;;;;;33.24;32.98;99404.67;107916;1256;60281;-78
2023/07/02 10:25:12;;;;;;;3.40;3.00;;;;;;;33.33;32.99;99408.19;107915;1256;63873;-78
2023/07/02 10:27:42;;;;;;;5.30;3.90;;;;;;;33.33;32.87;99409.88;107945;1256;63907;-78
2023/07/02 10:30:10;;;;;;;4.30;3.50;;;;;;;33.22;32.99;99405.20;107876;1256;64052;-79
2023/07/02 10:32:38;;;;;;;4.20;3.80;;;;;;;33.15;33.27;99400.74;107836;1256;60415;-79
2023/07/02 10:35:15;;;;;;;5.20;3.60;;;;;;;33.12;33.02;99398.61;108034;1259;60606;-79
2023/07/02 10:37:43;;;;;;;5.30;3.80;;;;;;;33.05;33.02;99393.58;107965;1256;63754;-80
2023/07/02 10:40:11;;;;;;;5.00;3.90;;;;;;;32.94;33.34;99389.77;107889;1256;64319;-77
2023/07/02 10:43:07;;;;;;;4.70;4.10;;;;;;;32.87;33.85;99385.77;107996;1256;63928;-79
2023/07/02 10:45:35;;;;;;;4.40;3.80;;;;;;;32.93;34.14;99385.70;107618;1260;60334;-81
2023/07/02 10:48:04;;;;;;;4.70;3.90;;;;;;;33.09;34.26;99383.34;107618;1259;60537;-79
2023/07/02 10:50:32;;;;;;;4.80;3.70;;;;;;;33.24;33.81;99380.56;107701;1260;65285;-78
2023/07/02 10:52:59;;;;;;;5.10;3.80;;;;;;;33.33;32.88;99380.54;107640;1260;62538;-78
2023/07/02 10:55:31;;;;;;;6.90;4.70;;;;;;;33.27;32.58;99382.21;107615;1260;64660;-78
2023/07/02 10:58:04;;;;;;;4.80;4.20;;;;;;;33.27;32.93;99381.27;107586;1259;60546;-79
2023/07/02 11:00:32;;;;;;;4.20;3.80;;;;;;;33.26;33.03;99378.59;107670;1260;60342;-77
2023/07/02 11:03:00;;;;;;;4.30;3.80;;;;;;;33.34;32.99;99378.44;107632;1259;65237;-77
2023/07/02 11:05:27;;;;;;;4.80;3.70;;;;;;;33.40;33.11;99377.86;107590;1260;63937;-78
2023/07/02 11:08:09;;;;;;;5.90;4.10;;;;;;;33.38;33.18;99373.34;107564;1259;63887;-77
2023/07/02 11:10:35;;;;;;;4.90;3.70;;;;;;;33.38;33.35;99365.91;107513;1259;60466;-79
2023/07/02 11:13:16;;;;;;;4.90;3.80;;;;;;;33.46;33.62;99361.65;107498;1259;60441;-78
2023/07/02 11:15:48;;;;;;;4.20;3.70;;;;;;;33.57;32.76;99358.16;107642;1259;65183;-78
2023/07/02 11:18:17;;;;;;;6.10;3.70;;;;;;;33.70;32.37;99351.98;108039;1256;64108;-78
2023/07/02 11:20:44;;;;;;;5.20;3.80;;;;;;;33.78;31.95;99346.63;107934;1256;62797;-78
2023/07/02 11:23:25;;;;;;;8.00;7.20;;;;;;;33.74;32.16;99344.88;107950;1256;59777;-78
2023/07/02 11:25:57;;;;;;;5.50;4.40;;;;;;;33.69;32.37;99339.19;107843;1256;60442;-78
2023/07/02 11:28:31;;;;;;;6.60;5.90;;;;;;;33.73;31.69;99330.70;107748;1256;65815;-77
2023/07/02 11:30:59;;;;;;;4.10;3.30;;;;;;;33.82;30.39;99326.98;107951;1256;62632;-79